Terminal Aerodrome Forecast
Issued by NWS

Home | Current Version | Previous Version | Text Only | Print | Product List | Glossary On
Versions: 1 2 3 4 5 6 7 8 9 10 11 12 13 14
471
FTUS43 KMQT 031124
TAFIWD
TAF
KIWD 031124Z 0312/0412 23007KT P6SM BKN120
     FM031500 25011G17KT P6SM VCSH OVC100
     FM031800 27013G21KT P6SM VCSH OVC045
     FM031900 28012G20KT P6SM VCSH BKN060
     FM032100 31011G17KT P6SM VCTS SCT080CB
     FM032300 01008KT P6SM SCT080
     FM040700 01005KT P6SM BKN050
      AMD LTD TO CLD VIS AND WIND=

USA.gov is the U.S. government's official web portal to all federal, state and local government web resources and services.